createdAt,value
2019-05-09T00:01:16.319Z,93974.94
2019-05-09T00:03:46.309Z,93974.98
2019-05-09T00:06:16.218Z,93970.85
2019-05-09T00:08:46.187Z,93980.20
2019-05-09T00:11:16.089Z,93964.48
2019-05-09T00:13:46.002Z,93969.33
2019-05-09T00:16:15.878Z,93976.48
2019-05-09T00:18:45.881Z,93979.44
2019-05-09T00:21:20.906Z,93974.48
2019-05-09T00:23:50.824Z,93979.30
2019-05-09T00:26:20.736Z,93973.42
2019-05-09T00:28:53.483Z,93977.44
2019-05-09T00:31:33.751Z,93976.19
2019-05-09T00:34:05.552Z,93977.92
2019-05-09T00:36:35.389Z,93983.91
2019-05-09T00:39:06.676Z,93993.58
2019-05-09T00:41:36.580Z,93978.23
2019-05-09T00:44:13.896Z,93972.70
2019-05-09T00:47:13.529Z,93985.02
2019-05-09T00:49:43.628Z,93988.64
2019-05-09T00:52:14.233Z,93976.17
2019-05-09T00:54:44.163Z,93973.89
2019-05-09T00:57:33.640Z,93978.36
2019-05-09T01:00:08.119Z,93988.36
2019-05-09T01:02:38.033Z,93983.67
2019-05-09T01:05:09.070Z,93980.14
2019-05-09T01:07:39.000Z,93978.95
2019-05-09T01:10:10.418Z,93974.17
2019-05-09T01:12:40.449Z,93964.11
2019-05-09T01:15:13.224Z,93961.90
2019-05-09T01:17:44.180Z,93964.91
2019-05-09T01:20:14.898Z,93962.42
2019-05-09T01:22:44.716Z,93949.48
2019-05-09T01:25:14.697Z,93954.61
2019-05-09T01:27:44.677Z,93958.20
2019-05-09T01:30:14.959Z,93956.89
2019-05-09T01:33:03.856Z,93962.27
2019-05-09T01:35:34.121Z,93949.98
2019-05-09T01:38:04.009Z,93945.58
2019-05-09T01:40:33.962Z,93955.89
2019-05-09T01:43:04.463Z,93959.23
2019-05-09T01:45:34.561Z,93958.55
2019-05-09T01:48:04.529Z,93950.62
2019-05-09T01:50:34.437Z,93945.65
2019-05-09T01:53:04.490Z,93949.31
2019-05-09T01:55:53.962Z,93943.06
2019-05-09T01:58:23.668Z,93937.12
2019-05-09T02:00:54.027Z,93934.66
2019-05-09T02:03:25.227Z,93938.77
2019-05-09T02:05:55.207Z,93949.53
2019-05-09T02:08:25.139Z,93949.25
2019-05-09T02:10:55.328Z,93945.16
2019-05-09T02:13:25.316Z,93951.02
2019-05-09T02:16:08.835Z,93952.88
2019-05-09T02:19:04.118Z,93944.23
2019-05-09T02:21:34.569Z,93943.61
2019-05-09T02:24:04.849Z,93944.18
2019-05-09T02:26:34.685Z,93941.09
2019-05-09T02:29:04.873Z,93931.00
2019-05-09T02:31:35.545Z,93933.36
2019-05-09T02:34:05.670Z,93947.98
2019-05-09T02:36:38.481Z,93937.44
2019-05-09T02:39:09.246Z,93936.19
2019-05-09T02:41:59.041Z,93941.47
2019-05-09T02:44:11.006Z,93940.14
2019-05-09T02:46:49.212Z,93932.56
2019-05-09T02:49:19.262Z,93929.78
2019-05-09T02:51:49.300Z,93929.52
2019-05-09T02:54:19.316Z,93937.64
2019-05-09T02:56:49.534Z,93928.53
2019-05-09T02:59:38.649Z,93936.91
2019-05-09T03:02:34.071Z,93935.68
2019-05-09T03:05:04.134Z,93937.21
2019-05-09T03:07:49.554Z,93933.59
2019-05-09T03:10:22.032Z,93932.86
2019-05-09T03:12:52.284Z,93928.67
2019-05-09T03:15:22.203Z,93926.06
2019-05-09T03:17:52.105Z,93920.86
2019-05-09T03:20:44.113Z,93919.13
2019-05-09T03:23:14.046Z,93923.23
2019-05-09T03:25:44.027Z,93922.52
2019-05-09T03:28:34.108Z,93924.31
2019-05-09T03:31:04.713Z,93925.99
2019-05-09T03:33:35.783Z,93924.09
2019-05-09T03:36:07.777Z,93920.23
2019-05-09T03:38:37.881Z,93919.91
2019-05-09T03:41:08.497Z,93919.41
2019-05-09T03:43:38.695Z,93909.84
2019-05-09T03:46:18.038Z,93915.14
2019-05-09T03:48:50.666Z,93908.73
2019-05-09T03:51:20.478Z,93911.58
2019-05-09T03:53:50.385Z,93910.22
2019-05-09T03:56:24.367Z,93918.47
2019-05-09T03:58:54.243Z,93920.73
2019-05-09T04:01:24.164Z,93916.69
2019-05-09T04:03:54.173Z,93916.02
2019-05-09T04:06:25.047Z,93916.08
2019-05-09T04:08:54.953Z,93914.57
2019-05-09T04:11:24.881Z,93907.48
2019-05-09T04:14:00.634Z,93912.28
2019-05-09T04:16:30.495Z,93915.51
2019-05-09T04:19:00.348Z,93921.33
2019-05-09T04:21:30.184Z,93912.83
2019-05-09T04:24:00.095Z,93908.83
2019-05-09T04:26:45.059Z,93915.47
2019-05-09T04:29:15.139Z,93906.80
2019-05-09T04:31:45.060Z,93909.27
2019-05-09T04:34:14.910Z,93910.50
2019-05-09T04:36:44.886Z,93908.14
2019-05-09T04:39:21.045Z,93915.34
2019-05-09T04:41:48.643Z,93917.02
2019-05-09T04:44:29.390Z,93912.84
2019-05-09T04:47:03.374Z,93918.91
2019-05-09T04:49:39.584Z,93918.13
2019-05-09T04:52:02.453Z,93924.03
2019-05-09T04:54:32.460Z,93926.72
2019-05-09T04:57:02.418Z,93929.23
2019-05-09T04:59:32.355Z,93925.87
2019-05-09T05:02:21.358Z,93924.77
2019-05-09T05:04:51.323Z,93919.63
2019-05-09T05:07:21.445Z,93927.61
2019-05-09T05:09:51.339Z,93926.37
2019-05-09T05:12:21.186Z,93926.94
2019-05-09T05:14:51.041Z,93924.20
2019-05-09T05:17:21.013Z,93924.98
2019-05-09T05:19:51.406Z,93923.20
2019-05-09T05:22:30.514Z,93928.16
2019-05-09T05:25:02.777Z,93926.05
2019-05-09T05:27:32.645Z,93927.95
2019-05-09T05:30:02.682Z,93930.05
2019-05-09T05:32:54.438Z,93925.02
2019-05-09T05:35:42.785Z,93924.51
2019-05-09T05:38:12.672Z,93925.31
2019-05-09T05:40:46.080Z,93934.58
2019-05-09T05:43:14.363Z,93935.13
2019-05-09T05:46:03.220Z,93938.80
2019-05-09T05:48:34.239Z,93938.55
2019-05-09T05:51:04.259Z,93936.46
2019-05-09T05:53:34.185Z,93942.19
2019-05-09T05:56:04.193Z,93934.47
2019-05-09T05:58:34.174Z,93940.39
2019-05-09T06:01:04.892Z,93939.66
2019-05-09T06:03:34.886Z,93937.27
2019-05-09T06:06:04.892Z,93946.97
2019-05-09T06:08:34.832Z,93942.42
2019-05-09T06:11:08.554Z,93942.92
2019-05-09T06:13:37.962Z,93944.72
2019-05-09T06:16:08.726Z,93937.01
2019-05-09T06:18:38.708Z,93939.70
2019-05-09T06:21:09.007Z,93940.19
2019-05-09T06:23:39.083Z,93935.63
2019-05-09T06:26:10.307Z,93932.45
2019-05-09T06:28:40.411Z,93934.14
2019-05-09T06:31:10.326Z,93932.52
2019-05-09T06:33:46.089Z,93933.91
2019-05-09T06:36:12.141Z,93927.08
2019-05-09T06:38:42.130Z,93931.36
2019-05-09T06:41:12.311Z,93937.66
2019-05-09T06:43:44.570Z,93937.91
2019-05-09T06:46:30.327Z,93935.95
2019-05-09T06:49:20.118Z,93939.70
2019-05-09T06:51:33.835Z,93935.91
2019-05-09T06:54:03.836Z,93937.20
2019-05-09T06:56:33.757Z,93932.42
2019-05-09T06:59:03.694Z,93942.14
2019-05-09T07:01:38.907Z,93943.98
2019-05-09T07:04:13.538Z,93928.64
2019-05-09T07:06:48.308Z,93925.55
2019-05-09T07:09:27.862Z,93934.85
2019-05-09T07:11:58.625Z,93928.24
2019-05-09T07:14:33.379Z,93931.90
2019-05-09T07:17:01.545Z,93916.02
2019-05-09T07:19:31.525Z,93939.39
2019-05-09T07:22:09.246Z,93924.55
2019-05-09T07:25:06.446Z,93915.09
2019-05-09T07:27:34.041Z,93919.55
2019-05-09T07:30:11.620Z,93914.20
2019-05-09T07:32:48.903Z,93911.11
2019-05-09T07:35:18.841Z,93906.89
2019-05-09T07:37:48.951Z,93904.81
2019-05-09T07:40:19.033Z,93874.55
2019-05-09T07:42:49.076Z,93898.98
2019-05-09T07:45:19.002Z,93899.09
2019-05-09T07:47:50.031Z,93899.34
2019-05-09T07:50:20.011Z,93905.81
2019-05-09T07:52:49.913Z,93903.13
2019-05-09T07:55:19.883Z,93902.20
2019-05-09T07:57:55.150Z,93894.25
2019-05-09T08:00:32.047Z,93896.70
2019-05-09T08:03:03.260Z,93896.92
2019-05-09T08:05:34.420Z,93886.34
2019-05-09T08:08:08.019Z,93890.11
2019-05-09T08:10:38.613Z,93892.31
2019-05-09T08:13:11.821Z,93893.59
2019-05-09T08:15:40.037Z,93897.48
2019-05-09T08:18:09.958Z,93890.31
2019-05-09T08:20:40.771Z,93891.23
2019-05-09T08:23:10.882Z,93898.78
2019-05-09T08:25:40.755Z,93894.85
2019-05-09T08:28:10.738Z,93900.43
2019-05-09T08:30:40.687Z,93896.20
2019-05-09T08:33:10.672Z,93891.44
2019-05-09T08:35:40.607Z,93890.95
2019-05-09T08:38:10.538Z,93898.05
2019-05-09T08:40:40.467Z,93886.30
2019-05-09T08:43:10.306Z,93891.75
2019-05-09T08:45:40.231Z,93896.77
2019-05-09T08:48:10.156Z,93897.13
2019-05-09T08:50:52.762Z,93891.27
2019-05-09T08:53:22.705Z,93890.95
2019-05-09T08:55:52.647Z,93880.86
2019-05-09T08:58:22.601Z,93883.78
2019-05-09T09:00:52.470Z,93880.93
2019-05-09T09:03:22.364Z,93873.03
2019-05-09T09:05:52.292Z,93870.84
2019-05-09T09:08:22.227Z,93867.38
2019-05-09T09:10:52.259Z,93875.91
2019-05-09T09:13:22.251Z,93864.31
2019-05-09T09:16:08.497Z,93862.83
2019-05-09T09:18:23.895Z,93866.70
2019-05-09T09:20:53.883Z,93890.83
2019-05-09T09:23:39.040Z,93869.41
2019-05-09T09:25:58.186Z,93865.63
2019-05-09T09:28:27.654Z,93861.02
2019-05-09T09:30:59.135Z,93857.77
2019-05-09T09:33:29.235Z,93853.53
2019-05-09T09:35:59.324Z,93856.22
2019-05-09T09:38:29.322Z,93855.03
2019-05-09T09:40:59.329Z,93847.20
2019-05-09T09:43:29.179Z,93841.66
2019-05-09T09:46:10.986Z,93840.81
2019-05-09T09:48:30.770Z,93837.98
2019-05-09T09:51:00.737Z,93839.53
2019-05-09T09:53:30.839Z,93838.10
2019-05-09T09:56:01.006Z,93841.16
2019-05-09T09:58:30.974Z,93834.88
2019-05-09T10:01:20.240Z,93827.67
2019-05-09T10:03:58.129Z,93816.97
2019-05-09T10:06:28.427Z,93818.97
2019-05-09T10:08:58.975Z,93826.69
2019-05-09T10:11:29.091Z,93830.07
2019-05-09T10:13:59.267Z,93821.28
2019-05-09T10:16:51.076Z,93822.19
2019-05-09T10:19:32.375Z,93829.38
2019-05-09T10:22:03.170Z,93823.88
2019-05-09T10:24:33.171Z,93824.39
2019-05-09T10:27:08.806Z,93826.15
2019-05-09T10:29:38.848Z,93828.82
2019-05-09T10:32:12.571Z,93824.58
2019-05-09T10:34:42.599Z,93827.89
2019-05-09T10:37:12.675Z,93834.22
2019-05-09T10:39:42.656Z,93832.33
2019-05-09T10:42:28.775Z,93841.31
2019-05-09T10:45:20.890Z,93838.23
2019-05-09T10:47:50.747Z,93843.64
2019-05-09T10:50:20.790Z,93858.78
2019-05-09T10:52:50.615Z,93857.98
2019-05-09T10:55:20.614Z,93868.27
2019-05-09T10:57:52.750Z,93856.52
2019-05-09T11:00:22.551Z,93867.65
2019-05-09T11:02:52.503Z,93873.00
2019-05-09T11:05:22.431Z,93883.23
2019-05-09T11:07:52.272Z,93865.95
2019-05-09T11:10:28.337Z,93898.46
2019-05-09T11:12:54.011Z,93905.41
2019-05-09T11:15:24.007Z,93921.88
2019-05-09T11:17:53.844Z,93931.30
2019-05-09T11:20:23.762Z,93937.22
2019-05-09T11:22:53.742Z,93941.71
2019-05-09T11:25:23.666Z,93950.84
2019-05-09T11:28:06.978Z,93952.94
2019-05-09T11:30:25.231Z,93946.39
2019-05-09T11:32:55.140Z,93984.70
2019-05-09T11:35:26.042Z,93978.89
2019-05-09T11:37:58.746Z,93941.09
2019-05-09T11:40:28.152Z,93927.84
2019-05-09T11:42:58.316Z,93914.36
2019-05-09T11:45:28.309Z,93911.05
2019-05-09T11:47:58.490Z,93905.30
2019-05-09T11:50:28.532Z,93905.19
2019-05-09T11:52:59.943Z,93902.02
2019-05-09T11:55:36.008Z,93905.09
2019-05-09T11:58:01.663Z,93895.59
2019-05-09T12:00:31.640Z,93894.31
2019-05-09T12:03:01.629Z,93887.00
2019-05-09T12:05:31.477Z,93890.99
2019-05-09T12:08:01.318Z,93893.02
2019-05-09T12:10:31.457Z,93879.64
2019-05-09T12:13:01.373Z,93872.62
2019-05-09T12:15:31.297Z,93865.05
2019-05-09T12:18:07.679Z,93877.66
2019-05-09T12:20:33.186Z,93883.45
2019-05-09T12:23:04.246Z,93869.23
2019-05-09T12:25:34.168Z,93869.12
2019-05-09T12:28:04.468Z,93859.72
2019-05-09T12:30:34.487Z,93862.69
2019-05-09T12:33:04.432Z,93860.70
2019-05-09T12:35:34.427Z,93858.35
2019-05-09T12:38:23.591Z,93848.03
2019-05-09T12:40:53.581Z,93847.78
2019-05-09T12:43:23.558Z,93840.99
2019-05-09T12:45:53.609Z,93844.60
2019-05-09T12:48:23.542Z,93846.19
2019-05-09T12:50:53.541Z,93841.38
2019-05-09T12:53:23.332Z,93839.61
2019-05-09T12:55:59.988Z,93843.91
2019-05-09T12:58:30.621Z,93872.67
2019-05-09T13:01:00.599Z,93848.15
2019-05-09T13:03:30.616Z,93844.71
2019-05-09T13:06:00.603Z,93846.64
2019-05-09T13:08:30.774Z,93865.99
2019-05-09T13:11:02.578Z,93842.55
2019-05-09T13:13:32.451Z,93835.91
2019-05-09T13:16:14.245Z,93830.95
2019-05-09T13:19:22.038Z,93831.70
2019-05-09T13:21:51.954Z,93838.84
2019-05-09T13:24:21.935Z,93828.77
2019-05-09T13:26:51.890Z,93830.28
2019-05-09T13:29:21.919Z,93845.69
2019-05-09T13:31:51.780Z,93833.72
2019-05-09T13:34:24.917Z,93828.81
2019-05-09T13:36:54.886Z,93812.74
2019-05-09T13:39:24.940Z,93817.05
2019-05-09T13:41:54.872Z,93809.55
2019-05-09T13:44:24.904Z,93815.03
2019-05-09T13:46:54.750Z,93816.09
2019-05-09T13:49:24.658Z,93813.48
2019-05-09T13:52:01.300Z,93808.55
2019-05-09T13:54:28.566Z,93810.59
2019-05-09T13:57:01.295Z,93802.32
2019-05-09T13:59:30.460Z,93802.88
2019-05-09T14:02:00.383Z,93803.67
2019-05-09T14:04:30.408Z,93810.87
2019-05-09T14:07:00.336Z,93809.78
2019-05-09T14:09:30.240Z,93814.27
2019-05-09T14:12:00.140Z,93809.49
2019-05-09T14:14:30.107Z,93808.34
2019-05-09T14:16:59.959Z,93805.33
2019-05-09T14:19:40.704Z,93812.11
2019-05-09T14:22:01.719Z,93815.84
2019-05-09T14:24:31.504Z,93820.64
2019-05-09T14:27:01.375Z,93823.02
2019-05-09T14:29:32.307Z,93824.80
2019-05-09T14:32:05.019Z,93822.70
2019-05-09T14:34:33.829Z,93828.66
2019-05-09T14:37:03.741Z,93834.45
2019-05-09T14:39:33.679Z,93838.97
2019-05-09T14:42:03.687Z,93846.09
2019-05-09T14:44:33.615Z,93878.01
2019-05-09T14:47:03.612Z,93869.30
2019-05-09T14:49:41.425Z,93866.98
2019-05-09T14:52:05.242Z,93882.73
2019-05-09T14:54:35.145Z,93868.18
2019-05-09T14:57:05.132Z,93874.88
2019-05-09T14:59:35.135Z,93880.64
2019-05-09T15:02:05.196Z,93887.59
2019-05-09T15:04:35.221Z,93880.67
2019-05-09T15:07:07.482Z,93874.31
2019-05-09T15:09:36.883Z,93879.66
2019-05-09T15:12:06.880Z,93878.52
2019-05-09T15:14:38.335Z,93873.54
2019-05-09T15:17:08.939Z,93875.14
2019-05-09T15:19:38.935Z,93886.71
2019-05-09T15:22:09.137Z,93880.31
2019-05-09T15:24:39.131Z,93875.69
2019-05-09T15:27:09.039Z,93872.64
2019-05-09T15:29:39.234Z,93867.91
2019-05-09T15:32:12.223Z,93866.62
2019-05-09T15:34:41.299Z,93875.76
2019-05-09T15:37:11.263Z,93874.38
2019-05-09T15:39:41.401Z,93873.86
2019-05-09T15:42:11.348Z,93870.48
2019-05-09T15:44:41.213Z,93859.06
2019-05-09T15:47:18.174Z,93859.40
2019-05-09T15:49:49.415Z,93882.27
2019-05-09T15:52:19.540Z,93875.36
2019-05-09T15:54:49.575Z,93868.02
2019-05-09T15:57:19.612Z,93856.24
2019-05-09T15:59:49.620Z,93855.42
2019-05-09T16:02:19.472Z,93851.59
2019-05-09T16:04:49.472Z,93858.36
2019-05-09T16:07:19.409Z,93857.23
2019-05-09T16:09:49.403Z,93857.61
2019-05-09T16:12:19.382Z,93849.33
2019-05-09T16:14:49.623Z,93853.81
2019-05-09T16:17:19.560Z,93864.67
2019-05-09T16:19:49.514Z,93872.40
2019-05-09T16:22:19.547Z,93871.47
2019-05-09T16:24:49.462Z,93885.20
2019-05-09T16:27:19.378Z,93886.16
2019-05-09T16:29:49.389Z,93881.54
2019-05-09T16:32:19.441Z,93881.44
2019-05-09T16:34:49.419Z,93885.14
2019-05-09T16:37:19.362Z,93890.55
2019-05-09T16:39:49.585Z,93890.02
2019-05-09T16:42:19.555Z,93872.14
2019-05-09T16:44:49.761Z,93930.59
2019-05-09T16:47:22.758Z,93901.50
2019-05-09T16:50:13.335Z,93924.73
2019-05-09T16:52:48.785Z,93946.03
2019-05-09T16:55:24.270Z,93921.74
2019-05-09T16:57:54.286Z,93914.91
2019-05-09T17:00:40.927Z,93951.23
2019-05-09T17:03:13.142Z,93940.91
2019-05-09T17:05:43.471Z,93930.30
2019-05-09T17:08:13.603Z,93933.66
2019-05-09T17:10:44.331Z,93958.01
2019-05-09T17:13:14.345Z,93929.77
2019-05-09T17:15:44.591Z,93940.80
2019-05-09T17:18:14.697Z,93950.22
2019-05-09T17:21:18.297Z,93949.28
2019-05-09T17:23:42.082Z,93944.88
2019-05-09T17:26:12.096Z,93951.41
2019-05-09T17:28:42.144Z,93956.55
2019-05-09T17:31:12.373Z,93968.31
2019-05-09T17:33:42.378Z,93968.88
2019-05-09T17:36:12.231Z,93968.87
2019-05-09T17:38:43.511Z,93971.19
2019-05-09T17:41:14.366Z,93996.03
2019-05-09T17:43:44.287Z,93998.89
2019-05-09T17:46:14.280Z,93994.45
2019-05-09T17:48:44.295Z,93993.56
2019-05-09T17:51:14.344Z,94005.13
2019-05-09T17:53:51.465Z,94004.11
2019-05-09T17:56:15.961Z,94021.47
2019-05-09T17:58:45.874Z,94032.62
2019-05-09T18:01:17.972Z,94042.11
2019-05-09T18:03:48.235Z,94036.75
2019-05-09T18:06:19.096Z,94023.83
2019-05-09T18:08:49.351Z,94036.70
2019-05-09T18:11:19.568Z,94039.20
2019-05-09T18:13:49.566Z,94045.12
2019-05-09T18:16:19.559Z,94045.61
2019-05-09T18:18:51.219Z,94054.64
2019-05-09T18:21:21.257Z,94063.67
2019-05-09T18:23:51.281Z,94061.17
2019-05-09T18:26:21.225Z,94085.70
2019-05-09T18:28:51.223Z,94067.75
2019-05-09T18:31:23.034Z,94075.06
2019-05-09T18:33:58.272Z,94064.53
2019-05-09T18:36:28.357Z,94073.59
2019-05-09T18:38:58.655Z,94081.58
2019-05-09T18:41:28.736Z,94092.36
2019-05-09T18:43:58.751Z,94078.27
2019-05-09T18:46:28.600Z,94072.21
2019-05-09T18:48:58.516Z,94073.28
2019-05-09T18:51:28.861Z,94090.17
2019-05-09T18:53:59.431Z,94084.94
2019-05-09T18:56:29.432Z,94093.95
2019-05-09T18:59:00.835Z,94102.49
2019-05-09T19:01:30.850Z,94103.95
2019-05-09T19:04:00.766Z,94107.66
2019-05-09T19:06:30.778Z,94108.95
2019-05-09T19:09:00.831Z,94101.28
2019-05-09T19:11:31.153Z,94101.89
2019-05-09T19:14:01.625Z,94123.02
2019-05-09T19:16:47.212Z,94118.10
2019-05-09T19:19:27.512Z,94120.00
2019-05-09T19:22:04.714Z,94137.06
2019-05-09T19:24:31.433Z,94137.50
2019-05-09T19:27:01.464Z,94146.16
2019-05-09T19:29:31.387Z,94157.69
2019-05-09T19:32:01.316Z,94149.24
2019-05-09T19:34:31.394Z,94153.59
2019-05-09T19:37:01.396Z,94171.22
2019-05-09T19:39:31.465Z,94171.97
2019-05-09T19:42:01.322Z,94174.20
2019-05-09T19:44:31.237Z,94185.53
2019-05-09T19:47:01.858Z,94172.84
2019-05-09T19:49:31.955Z,94200.10
2019-05-09T19:52:01.779Z,94184.23
2019-05-09T19:54:31.619Z,94179.47
2019-05-09T19:57:01.558Z,94192.91
2019-05-09T19:59:31.488Z,94197.64
2019-05-09T20:02:01.437Z,94209.63
2019-05-09T20:04:31.279Z,94201.50
2019-05-09T20:07:01.119Z,94210.64
2019-05-09T20:09:45.659Z,94197.74
2019-05-09T20:12:25.414Z,94196.20
2019-05-09T20:14:55.336Z,94204.87
2019-05-09T20:17:25.238Z,94212.72
2019-05-09T20:19:55.155Z,94220.75
2019-05-09T20:22:26.239Z,94208.06
2019-05-09T20:24:56.158Z,94217.10
2019-05-09T20:27:26.049Z,94221.98
2019-05-09T20:29:55.967Z,94237.78
2019-05-09T20:32:25.879Z,94234.66
2019-05-09T20:34:55.831Z,94236.37
2019-05-09T20:37:25.946Z,94241.84
2019-05-09T20:39:55.939Z,94270.49
2019-05-09T20:42:26.151Z,94255.13
2019-05-09T20:44:56.258Z,94243.86
2019-05-09T20:47:26.379Z,94247.72
2019-05-09T20:49:56.488Z,94258.80
2019-05-09T20:52:26.592Z,94265.58
2019-05-09T20:54:56.629Z,94263.86
2019-05-09T20:57:26.681Z,94260.36
2019-05-09T20:59:56.788Z,94257.27
2019-05-09T21:02:26.968Z,94268.47
2019-05-09T21:04:56.997Z,94270.86
2019-05-09T21:07:27.112Z,94262.63
2019-05-09T21:09:57.140Z,94265.55
2019-05-09T21:12:27.328Z,94280.08
2019-05-09T21:14:57.657Z,94293.45
2019-05-09T21:17:27.812Z,94278.81
2019-05-09T21:19:58.993Z,94289.14
2019-05-09T21:22:29.084Z,94293.05
2019-05-09T21:24:59.252Z,94298.09
2019-05-09T21:27:29.470Z,94301.06
2019-05-09T21:29:59.579Z,94302.13
2019-05-09T21:32:29.635Z,94300.28
2019-05-09T21:34:59.576Z,94304.35
2019-05-09T21:37:29.496Z,94304.30
2019-05-09T21:39:59.526Z,94304.37
2019-05-09T21:42:29.513Z,94308.91
2019-05-09T21:44:59.339Z,94298.89
2019-05-09T21:47:29.220Z,94307.11
2019-05-09T21:49:59.145Z,94297.98
2019-05-09T21:52:29.123Z,94304.46
2019-05-09T21:54:59.026Z,94300.27
2019-05-09T21:57:29.022Z,94309.05
2019-05-09T21:59:59.819Z,94316.66
2019-05-09T22:02:29.884Z,94310.64
2019-05-09T22:04:59.867Z,94310.28
2019-05-09T22:07:29.797Z,94316.98
2019-05-09T22:09:59.701Z,94317.16
2019-05-09T22:12:29.699Z,94313.70
2019-05-09T22:15:03.527Z,94318.57
2019-05-09T22:17:38.250Z,94313.14
2019-05-09T22:20:10.477Z,94328.58
2019-05-09T22:22:40.403Z,94331.80
2019-05-09T22:25:11.113Z,94334.48
2019-05-09T22:27:41.027Z,94340.13
2019-05-09T22:30:12.210Z,94349.64
2019-05-09T22:32:42.404Z,94347.92
2019-05-09T22:35:12.847Z,94346.53
2019-05-09T22:37:42.817Z,94341.47
2019-05-09T22:40:14.032Z,94358.73
2019-05-09T22:42:44.098Z,94363.80
2019-05-09T22:45:14.635Z,94357.75
2019-05-09T22:47:44.606Z,94361.55
2019-05-09T22:50:14.603Z,94361.05
2019-05-09T22:52:44.558Z,94367.63
2019-05-09T22:55:14.810Z,94369.27
2019-05-09T22:57:44.770Z,94349.24
2019-05-09T23:00:16.462Z,94372.59
2019-05-09T23:02:46.433Z,94359.93
2019-05-09T23:05:16.414Z,94371.61
2019-05-09T23:07:46.414Z,94369.31
2019-05-09T23:10:17.622Z,94374.34
2019-05-09T23:12:47.519Z,94370.28
2019-05-09T23:15:19.032Z,94369.34
2019-05-09T23:17:48.945Z,94366.69
2019-05-09T23:20:37.919Z,94371.60
2019-05-09T23:23:25.635Z,94366.55
2019-05-09T23:25:55.542Z,94371.89
2019-05-09T23:28:27.411Z,94366.95
2019-05-09T23:30:59.551Z,94382.67
2019-05-09T23:33:32.178Z,94386.41
2019-05-09T23:36:02.020Z,94382.06
2019-05-09T23:38:32.016Z,94388.21
2019-05-09T23:41:02.029Z,94385.16
2019-05-09T23:43:32.003Z,94387.42
2019-05-09T23:46:01.950Z,94393.12
2019-05-09T23:48:31.819Z,94392.17
2019-05-09T23:51:01.707Z,94399.22
2019-05-09T23:53:37.284Z,94388.46
2019-05-09T23:56:25.076Z,94392.63
2019-05-09T23:59:12.871Z,94392.34
